Laemchabang, Thailand

7:03 AM ICT on September 21, 2014 (GMT +0700)
Pattaya | Change Station
CLOSE
Current Station
Personal Weather Station
Location: Pattaya, CHONBURI
Elevation: 141 ft
Nearby Weather Stations

Elev 141 ft 12.93 °N, 100.91 °E | Updated 3 minutes ago

Mostly Cloudy
Mostly Cloudy
79.0 °F
Feels Like 84 °F
N
0.0
Wind Variable Wind from South
Gusts 1.0 mph

Today
High -- | Low -- °F
--% Chance of Precip.
Yesterday
High -- | Low -- °F
Precip. -- in
6:05 AM 6:13 PM
Waning Crescent, 10% visible
Pressure 29.83 in
Visibility 6.2 miles
Clouds Few 2000 ft
Scattered Clouds 12000 ft
Mostly Cloudy 30000 ft
Heat Index 84 °F
Dew Point 78 °F
Humidity 97%
Rainfall 0.08 in
Snow Depth Not available.
UV 0 out of 12
Pollen Not available.
Air Quality Not available.
Flu Activity Not available.
METAR VTBS 202330Z 29003KT 9999 FEW020 SCT120 BKN300 28/22 Q1010 NOSIG

More Conditions Fewer Conditions

Pressure 29.83 in
Visibility 6.2 miles
Clouds Few 2000 ft
Scattered Clouds 12000 ft
Mostly Cloudy 30000 ft
Heat Index 84 °F
Dew Point 78 °F
Humidity 97%
Rainfall 0.08 in
Snow Depth Not available.
UV 0 out of 12
Pollen Not available.
Air Quality Not available.
Flu Activity Not available.
METAR VTBS 202330Z 29003KT 9999 FEW020 SCT120 BKN300 28/22 Q1010 NOSIG

More Conditions Fewer Conditions

10-Day Weather Forecast

Almanac

Astronomy

Sep. 21, 2014 Rise Set
Actual Time 6:05 AM ICT 6:13 PM ICT
Civil Twilight 5:44 AM ICT 6:34 PM ICT
Nautical Twilight 5:19 AM ICT 6:59 PM ICT
Astronomical Twilight 4:54 AM ICT 7:24 PM ICT
Moon 3:34 AM ICT 4:13 PM ICT
Length of Visible Light 12h 50m
Length of Day
12h 08m
Tomorrow will be 0m 43s shorter.
Waning Crescent, 10% of the Moon is Illuminated
Sep 20
Waning Crescent
Sep 24
New
Oct 1
First Quarter
Oct 8
Full
Oct 15
Last Quarter

Yesterday's Extremes

Country Highs Country Lows

Community

WunderPhotos

Upload Photos

1,754,982 photos uploaded!

WunderBlogs® & News

Nearby

Snow Depth

Not available.

Earthquake Activity

City Distance Mag. Time & Date
No recent earthquake activity has been reported nearby.
Minimum magnitude displayed is 2.5.

Coastal Water Temperatures

Place Temperature
No Stations Reporting

Nearby Weather Stations